createdAt,value
2019-05-05T00:01:28.192Z,0.70
2019-05-05T00:04:00.291Z,0.60
2019-05-05T00:06:27.927Z,0.60
2019-05-05T00:08:56.544Z,0.60
2019-05-05T00:11:41.858Z,0.60
2019-05-05T00:14:24.609Z,0.50
2019-05-05T00:16:56.974Z,0.50
2019-05-05T00:19:32.936Z,0.60
2019-05-05T00:21:55.143Z,0.60
2019-05-05T00:24:24.425Z,0.50
2019-05-05T00:26:52.179Z,0.60
2019-05-05T00:29:19.824Z,0.60
2019-05-05T00:31:47.463Z,0.60
2019-05-05T00:34:15.503Z,0.70
2019-05-05T00:36:44.577Z,0.80
2019-05-05T00:39:12.322Z,0.90
2019-05-05T00:41:39.955Z,0.90
2019-05-05T00:44:07.603Z,1.00
2019-05-05T00:46:44.592Z,1.00
2019-05-05T00:49:12.103Z,1.10
2019-05-05T00:51:39.726Z,1.10
2019-05-05T00:56:34.745Z,1.20
2019-05-05T00:59:04.570Z,1.20
2019-05-05T01:01:34.329Z,1.10
2019-05-05T01:04:02.191Z,1.10
2019-05-05T01:06:31.454Z,1.00
2019-05-05T01:08:59.090Z,0.90
2019-05-05T01:11:26.794Z,0.80
2019-05-05T01:13:54.796Z,0.80
2019-05-05T01:16:24.584Z,0.80
2019-05-05T01:18:51.895Z,0.70
2019-05-05T01:21:19.538Z,0.60
2019-05-05T01:23:47.179Z,0.70
2019-05-05T01:26:14.877Z,0.70
2019-05-05T01:28:44.563Z,0.70
2019-05-05T01:31:14.650Z,0.80
2019-05-05T01:33:46.466Z,0.90
2019-05-05T01:36:14.894Z,0.90
2019-05-05T01:38:47.249Z,0.90
2019-05-05T01:41:19.465Z,0.90
2019-05-05T01:43:47.087Z,0.80
2019-05-05T01:46:14.727Z,0.80
2019-05-05T01:48:44.406Z,0.70
2019-05-05T01:51:11.711Z,0.60
2019-05-05T01:53:39.346Z,0.50
2019-05-05T01:56:07.011Z,0.50
2019-05-05T01:58:34.963Z,0.40
2019-05-05T02:01:04.916Z,0.30
2019-05-05T02:03:32.287Z,0.40
2019-05-05T02:05:59.930Z,0.30
2019-05-05T02:08:27.558Z,0.40
2019-05-05T02:10:55.208Z,0.40
2019-05-05T02:13:24.640Z,0.50
2019-05-05T02:15:52.270Z,0.50
2019-05-05T02:18:19.898Z,0.50
2019-05-05T02:20:54.201Z,0.50
2019-05-05T02:23:21.427Z,0.50
2019-05-05T02:25:49.054Z,0.50
2019-05-05T02:28:16.691Z,0.50
2019-05-05T02:31:02.103Z,0.50
2019-05-05T02:33:29.731Z,0.50
2019-05-05T02:35:57.368Z,0.50
2019-05-05T02:38:26.183Z,0.50
2019-05-05T02:40:54.890Z,0.50
2019-05-05T02:43:25.081Z,0.50
2019-05-05T02:46:05.486Z,0.40
2019-05-05T02:48:35.490Z,0.40
2019-05-05T02:51:06.709Z,0.40
2019-05-05T02:53:34.414Z,0.40
2019-05-05T02:56:04.317Z,0.40
2019-05-05T02:58:33.992Z,0.40
2019-05-05T03:01:10.329Z,0.40
2019-05-05T03:03:38.339Z,0.50
2019-05-05T03:06:05.975Z,0.50
2019-05-05T03:08:34.289Z,0.40
2019-05-05T03:11:03.847Z,0.40
2019-05-05T03:13:33.702Z,0.40
2019-05-05T03:16:08.951Z,0.40
2019-05-05T03:18:36.984Z,0.30
2019-05-05T03:21:07.380Z,0.30
2019-05-05T03:26:01.478Z,0.20
2019-05-05T03:30:58.132Z,0.10
2019-05-05T03:33:25.780Z,0.10
2019-05-05T03:35:54.163Z,0.10
2019-05-05T03:38:21.887Z,0.00
2019-05-05T03:40:51.322Z,0.00
2019-05-05T03:43:23.725Z,0.10
2019-05-05T03:45:56.367Z,0.10
2019-05-05T03:48:24.205Z,0.00
2019-05-05T03:50:53.915Z,-0.10
2019-05-05T03:53:21.415Z,-0.10
2019-05-05T03:55:49.819Z,0.00
2019-05-05T03:58:17.666Z,-0.10
2019-05-05T04:00:46.882Z,-0.10
2019-05-05T04:03:14.749Z,-0.10
2019-05-05T04:05:44.436Z,0.00
2019-05-05T04:08:14.355Z,0.00
2019-05-05T04:10:41.571Z,0.00
2019-05-05T04:13:09.215Z,0.10
2019-05-05T04:15:38.315Z,0.20
2019-05-05T04:18:07.589Z,0.20
2019-05-05T04:20:35.236Z,0.10
2019-05-05T04:23:03.759Z,0.10
2019-05-05T04:25:31.577Z,0.10
2019-05-05T04:27:59.202Z,0.10
2019-05-05T04:30:26.847Z,0.00
2019-05-05T04:32:54.737Z,0.00
2019-05-05T04:35:24.447Z,0.00
2019-05-05T04:37:54.069Z,0.10
2019-05-05T04:40:21.195Z,0.00
2019-05-05T04:42:48.823Z,0.10
2019-05-05T04:45:16.638Z,0.10
2019-05-05T04:47:53.923Z,0.10
2019-05-05T04:52:54.004Z,0.30
2019-05-05T04:55:21.758Z,0.40
2019-05-05T04:57:49.397Z,0.30
2019-05-05T05:00:17.330Z,0.40
2019-05-05T05:02:49.559Z,0.40
2019-05-05T05:05:30.761Z,0.40
2019-05-05T05:07:58.409Z,0.50
2019-05-05T05:10:26.064Z,0.50
2019-05-05T05:12:54.054Z,0.50
2019-05-05T05:15:23.371Z,0.60
2019-05-05T05:18:07.256Z,0.60
2019-05-05T05:20:34.894Z,0.60
2019-05-05T05:23:03.681Z,0.70
2019-05-05T05:25:31.455Z,0.70
2019-05-05T05:30:26.448Z,1.00
2019-05-05T05:32:54.094Z,1.10
2019-05-05T05:35:21.719Z,1.40
2019-05-05T05:37:49.364Z,1.50
2019-05-05T05:40:18.642Z,1.50
2019-05-05T05:42:46.278Z,1.70
2019-05-05T05:45:34.326Z,1.70
2019-05-05T05:48:16.338Z,2.00
2019-05-05T05:58:13.994Z,2.80
2019-05-05T06:03:09.989Z,3.50
2019-05-05T06:05:37.620Z,3.60
2019-05-05T06:10:33.877Z,4.20
2019-05-05T06:13:03.900Z,4.60
2019-05-05T06:15:31.118Z,4.90
2019-05-05T06:17:59.743Z,5.10
2019-05-05T06:20:27.411Z,5.30
2019-05-05T06:22:55.070Z,5.60
2019-05-05T06:27:53.499Z,5.80
2019-05-05T06:30:21.152Z,5.80
2019-05-05T06:32:54.199Z,5.70
2019-05-05T06:35:21.295Z,5.70
2019-05-05T06:37:55.572Z,5.50
2019-05-05T06:40:25.133Z,5.50
2019-05-05T06:42:54.393Z,5.60
2019-05-05T06:45:23.966Z,5.50
2019-05-05T06:47:53.718Z,6.10
2019-05-05T06:50:21.455Z,6.20
2019-05-05T06:52:49.094Z,6.90
2019-05-05T06:55:16.763Z,7.20
2019-05-05T06:57:44.522Z,7.80
2019-05-05T07:00:13.962Z,8.10
2019-05-05T07:02:41.690Z,8.10
2019-05-05T07:05:09.349Z,8.40
2019-05-05T07:07:36.983Z,8.60
2019-05-05T07:12:32.004Z,8.70
2019-05-05T07:14:59.641Z,8.90
2019-05-05T07:17:27.316Z,8.50
2019-05-05T07:19:54.967Z,8.70
2019-05-05T07:22:24.438Z,8.10
2019-05-05T07:24:54.039Z,8.40
2019-05-05T07:27:21.340Z,8.40
2019-05-05T07:29:49.252Z,8.40
2019-05-05T07:32:16.900Z,8.60
2019-05-05T07:34:51.900Z,8.40
2019-05-05T07:37:19.530Z,8.60
2019-05-05T07:39:47.174Z,8.20
2019-05-05T07:42:14.800Z,8.00
2019-05-05T07:44:44.110Z,7.80
2019-05-05T07:47:11.855Z,7.90
2019-05-05T07:49:39.499Z,7.90
2019-05-05T07:52:07.235Z,8.10
2019-05-05T07:54:34.992Z,8.20
2019-05-05T07:57:04.225Z,8.10
2019-05-05T07:59:33.899Z,8.10
2019-05-05T08:02:01.344Z,8.10
2019-05-05T08:04:28.997Z,8.30
2019-05-05T08:06:56.671Z,7.70
2019-05-05T08:09:25.034Z,7.80
2019-05-05T08:14:21.968Z,7.70
2019-05-05T08:16:56.871Z,7.60
2019-05-05T08:21:54.221Z,7.70
2019-05-05T08:24:33.724Z,7.60
2019-05-05T08:27:08.948Z,7.70
2019-05-05T08:29:38.228Z,7.60
2019-05-05T08:32:13.655Z,7.50
2019-05-05T08:34:56.624Z,7.50
2019-05-05T08:37:10.764Z,7.50
2019-05-05T08:39:38.399Z,7.50
2019-05-05T08:42:06.135Z,7.70
2019-05-05T08:44:34.407Z,7.60
2019-05-05T08:47:04.277Z,7.70
2019-05-05T08:49:31.509Z,7.70
2019-05-05T08:51:59.182Z,8.00
2019-05-05T08:54:26.855Z,8.00
2019-05-05T08:56:55.028Z,8.10
2019-05-05T08:59:24.227Z,8.40
2019-05-05T09:01:54.063Z,8.30
2019-05-05T09:04:21.393Z,8.40
2019-05-05T09:06:49.067Z,8.70
2019-05-05T09:09:16.720Z,8.80
2019-05-05T09:11:44.371Z,8.90
2019-05-05T09:14:12.007Z,8.90
2019-05-05T09:16:39.635Z,8.60
2019-05-05T09:19:08.981Z,8.90
2019-05-05T09:21:36.622Z,9.10
2019-05-05T09:24:18.067Z,9.10
2019-05-05T09:27:05.822Z,9.40
2019-05-05T09:29:38.068Z,9.60
2019-05-05T09:32:05.806Z,9.50
2019-05-05T09:37:03.674Z,10.10
2019-05-05T09:39:31.698Z,10.00
2019-05-05T09:41:59.335Z,9.70
2019-05-05T09:44:27.055Z,9.50
2019-05-05T09:46:54.700Z,10.00
2019-05-05T09:49:24.477Z,10.50
2019-05-05T09:51:51.795Z,10.90
2019-05-05T09:56:46.806Z,11.00
2019-05-05T09:59:14.637Z,11.00
2019-05-05T10:01:44.350Z,10.70
2019-05-05T10:04:13.731Z,10.10
2019-05-05T10:06:41.068Z,10.40
2019-05-05T10:09:09.783Z,10.30
2019-05-05T10:11:37.479Z,10.60
2019-05-05T10:16:32.595Z,11.70
2019-05-05T10:19:01.287Z,12.40
2019-05-05T10:21:28.999Z,12.30
2019-05-05T10:23:58.279Z,11.70
2019-05-05T10:26:25.916Z,12.20
2019-05-05T10:28:53.750Z,12.40
2019-05-05T10:31:21.480Z,11.90
2019-05-05T10:33:50.767Z,11.80
2019-05-05T10:36:18.399Z,11.60
2019-05-05T10:38:47.682Z,11.70
2019-05-05T10:41:15.311Z,11.60
2019-05-05T10:43:43.708Z,11.20
2019-05-05T10:48:38.842Z,11.00
2019-05-05T10:51:06.495Z,11.10
2019-05-05T10:53:34.140Z,11.20
2019-05-05T10:56:01.865Z,11.50
2019-05-05T10:58:29.495Z,11.60
2019-05-05T11:00:58.835Z,11.80
2019-05-05T11:03:26.560Z,11.90
2019-05-05T11:05:54.575Z,11.50
2019-05-05T11:10:49.871Z,12.50
2019-05-05T11:13:17.516Z,12.30
2019-05-05T11:15:45.164Z,12.00
2019-05-05T11:18:14.725Z,12.40
2019-05-05T11:20:44.433Z,11.80
2019-05-05T11:23:11.675Z,11.90
2019-05-05T11:25:39.330Z,12.30
2019-05-05T11:28:09.312Z,12.30
2019-05-05T11:30:38.200Z,12.20
2019-05-05T11:33:23.722Z,11.60
2019-05-05T11:35:53.881Z,11.60
2019-05-05T11:38:21.752Z,11.00
2019-05-05T11:40:49.398Z,11.10
2019-05-05T11:43:17.037Z,11.10
2019-05-05T11:45:44.756Z,10.70
2019-05-05T11:48:14.571Z,11.20
2019-05-05T11:53:10.770Z,11.50
2019-05-05T11:55:38.421Z,11.20
2019-05-05T11:58:06.063Z,11.50
2019-05-05T12:00:34.756Z,12.50
2019-05-05T12:03:03.798Z,12.60
2019-05-05T12:05:33.569Z,13.10
2019-05-05T12:08:01.023Z,13.10
2019-05-05T12:13:04.095Z,13.40
2019-05-05T12:15:31.759Z,12.10
2019-05-05T12:17:59.408Z,12.70
2019-05-05T12:20:33.894Z,12.90
2019-05-05T12:23:01.613Z,13.00
2019-05-05T12:25:46.951Z,12.90
2019-05-05T12:28:24.958Z,13.40
2019-05-05T12:33:24.304Z,15.20
2019-05-05T12:38:21.155Z,16.10
2019-05-05T12:40:48.822Z,16.30
2019-05-05T12:43:16.478Z,15.40
2019-05-05T12:45:54.244Z,15.10
2019-05-05T12:48:35.399Z,15.10
2019-05-05T12:51:04.216Z,15.50
2019-05-05T12:53:31.942Z,15.50
2019-05-05T12:55:59.562Z,15.70
2019-05-05T12:58:27.226Z,16.00
2019-05-05T13:01:14.314Z,16.10
2019-05-05T13:03:43.728Z,16.10
2019-05-05T13:06:11.543Z,15.90
2019-05-05T13:08:39.191Z,15.80
2019-05-05T13:11:06.841Z,15.40
2019-05-05T13:13:34.700Z,14.90
2019-05-05T13:16:04.239Z,14.30
2019-05-05T13:18:33.789Z,14.60
2019-05-05T13:23:51.018Z,15.10
2019-05-05T13:26:23.673Z,15.50
2019-05-05T13:28:51.411Z,16.10
2019-05-05T13:31:21.718Z,15.90
2019-05-05T13:33:48.427Z,16.00
2019-05-05T13:36:16.070Z,15.20
2019-05-05T13:38:43.916Z,16.10
2019-05-05T13:41:11.649Z,16.60
2019-05-05T13:43:39.349Z,17.00
2019-05-05T13:46:08.687Z,17.20
2019-05-05T13:56:11.194Z,19.20
2019-05-05T13:58:31.367Z,18.00
2019-05-05T14:03:26.371Z,16.90
2019-05-05T14:08:23.643Z,14.90
2019-05-05T14:10:51.238Z,14.20
2019-05-05T14:13:18.864Z,12.60
2019-05-05T14:15:46.519Z,12.50
2019-05-05T14:18:14.351Z,13.30
2019-05-05T14:20:43.581Z,13.20
2019-05-05T14:23:11.285Z,14.50
2019-05-05T14:25:38.943Z,15.10
2019-05-05T14:28:06.586Z,15.70
2019-05-05T14:30:36.051Z,16.10
2019-05-05T14:33:04.527Z,16.10
2019-05-05T14:35:36.735Z,16.30
2019-05-05T14:38:08.752Z,16.40
2019-05-05T14:40:36.400Z,16.10
2019-05-05T14:43:04.541Z,15.90
2019-05-05T14:45:34.044Z,15.50
2019-05-05T14:48:03.836Z,14.40
2019-05-05T14:50:31.150Z,14.60
2019-05-05T14:52:58.786Z,14.90
2019-05-05T14:55:26.427Z,13.30
2019-05-05T14:57:54.076Z,12.40
2019-05-05T15:00:24.211Z,12.20
2019-05-05T15:02:52.065Z,12.70
2019-05-05T15:05:37.415Z,12.70
2019-05-05T15:08:06.674Z,12.80
2019-05-05T15:13:15.240Z,11.60
2019-05-05T15:15:42.876Z,12.00
2019-05-05T15:18:10.530Z,11.20
2019-05-05T15:20:38.162Z,10.80
2019-05-05T15:23:05.815Z,11.10
2019-05-05T15:25:34.144Z,11.10
2019-05-05T15:28:01.878Z,11.70
2019-05-05T15:30:29.519Z,11.90
2019-05-05T15:32:57.180Z,12.00
2019-05-05T15:35:24.992Z,11.70
2019-05-05T15:37:54.153Z,12.30
2019-05-05T15:40:22.037Z,12.10
2019-05-05T15:42:49.677Z,12.20
2019-05-05T15:45:17.378Z,12.20
2019-05-05T15:47:45.039Z,12.10
2019-05-05T15:50:13.792Z,12.00
2019-05-05T15:52:41.581Z,12.10
2019-05-05T15:55:09.487Z,11.90
2019-05-05T15:57:37.136Z,11.90
2019-05-05T16:00:09.141Z,11.80
2019-05-05T16:02:36.793Z,11.70
2019-05-05T16:05:05.696Z,11.70
2019-05-05T16:07:33.453Z,11.60
2019-05-05T16:10:01.055Z,11.60
2019-05-05T16:12:33.777Z,11.60
2019-05-05T16:15:04.362Z,11.80
2019-05-05T16:17:43.913Z,11.90
2019-05-05T16:20:15.791Z,11.90
2019-05-05T16:22:45.070Z,11.50
2019-05-05T16:25:14.214Z,11.60
2019-05-05T16:27:44.021Z,11.20
2019-05-05T16:32:38.779Z,11.20
2019-05-05T16:35:09.552Z,10.70
2019-05-05T16:37:37.191Z,10.50
2019-05-05T16:40:06.382Z,10.70
2019-05-05T16:42:34.432Z,10.70
2019-05-05T16:45:02.197Z,10.80
2019-05-05T16:47:29.830Z,10.60
2019-05-05T16:49:57.478Z,10.60
2019-05-05T16:52:26.758Z,10.50
2019-05-05T16:55:04.373Z,10.90
2019-05-05T16:57:34.229Z,10.80
2019-05-05T17:00:00.736Z,10.60
2019-05-05T17:02:28.374Z,10.60
2019-05-05T17:04:56.015Z,10.60
2019-05-05T17:07:23.854Z,10.90
2019-05-05T17:09:51.543Z,11.00
2019-05-05T17:12:19.162Z,11.00
2019-05-05T17:14:51.418Z,10.70
2019-05-05T17:17:26.688Z,10.70
2019-05-05T17:19:55.995Z,10.70
2019-05-05T17:22:25.276Z,10.50
2019-05-05T17:24:53.547Z,10.50
2019-05-05T17:27:21.271Z,10.40
2019-05-05T17:29:48.925Z,10.40
2019-05-05T17:32:16.567Z,10.30
2019-05-05T17:34:44.892Z,10.00
2019-05-05T17:37:13.538Z,9.80
2019-05-05T17:39:43.761Z,9.90
2019-05-05T17:45:05.556Z,9.60
2019-05-05T17:47:44.288Z,9.50
2019-05-05T17:52:45.342Z,9.50
2019-05-05T17:55:28.866Z,9.40
2019-05-05T17:58:01.998Z,9.40
2019-05-05T18:00:27.819Z,9.40
2019-05-05T18:02:55.458Z,9.40
2019-05-05T18:05:41.276Z,9.30
2019-05-05T18:10:41.990Z,9.20
2019-05-05T18:13:11.265Z,9.10
2019-05-05T18:18:17.062Z,9.00
2019-05-05T18:20:45.053Z,8.90
2019-05-05T18:23:13.876Z,8.90
2019-05-05T18:25:41.643Z,8.80
2019-05-05T18:28:17.149Z,8.50
2019-05-05T18:30:38.660Z,8.60
2019-05-05T18:33:06.291Z,8.40
2019-05-05T18:35:34.014Z,8.30
2019-05-05T18:38:01.647Z,8.40
2019-05-05T18:40:29.274Z,8.20
2019-05-05T18:42:58.294Z,8.20
2019-05-05T18:47:53.813Z,8.00
2019-05-05T18:50:21.603Z,7.90
2019-05-05T18:52:49.238Z,7.80
2019-05-05T18:57:44.238Z,7.60
2019-05-05T19:00:13.936Z,7.50
2019-05-05T19:02:44.252Z,7.40
2019-05-05T19:05:16.518Z,7.30
2019-05-05T19:07:54.890Z,7.20
2019-05-05T19:10:15.219Z,7.00
2019-05-05T19:12:44.299Z,6.80
2019-05-05T19:15:13.622Z,6.70
2019-05-05T19:17:41.367Z,6.50
2019-05-05T19:20:14.651Z,6.40
2019-05-05T19:22:43.584Z,6.20
2019-05-05T19:25:17.251Z,6.10
2019-05-05T19:27:45.366Z,6.00
2019-05-05T19:30:13.863Z,5.90
2019-05-05T19:32:43.549Z,5.50
2019-05-05T19:35:11.030Z,5.50
2019-05-05T19:37:38.667Z,5.40
2019-05-05T19:40:06.477Z,5.40
2019-05-05T19:42:34.394Z,5.30
2019-05-05T19:45:04.122Z,5.10
2019-05-05T19:47:31.375Z,5.00
2019-05-05T19:52:44.049Z,4.90
2019-05-05T19:55:13.673Z,4.70
2019-05-05T19:57:40.854Z,4.60
2019-05-05T20:00:08.726Z,4.50
2019-05-05T20:02:36.364Z,4.40
2019-05-05T20:07:32.047Z,4.30
2019-05-05T20:12:27.079Z,4.30
2019-05-05T20:14:54.899Z,4.20
2019-05-05T20:17:27.196Z,4.20
2019-05-05T20:19:54.833Z,4.20
2019-05-05T20:22:23.682Z,4.20
2019-05-05T20:24:51.387Z,4.10
2019-05-05T20:27:19.014Z,4.10
2019-05-05T20:29:46.663Z,3.90
2019-05-05T20:32:15.764Z,3.70
2019-05-05T20:34:47.699Z,3.50
2019-05-05T20:37:16.963Z,3.40
2019-05-05T20:39:44.610Z,3.40
2019-05-05T20:42:12.237Z,3.30
2019-05-05T20:44:39.898Z,3.30
2019-05-05T20:47:07.518Z,3.30
2019-05-05T20:49:35.164Z,3.20
2019-05-05T20:52:03.716Z,3.10
2019-05-05T20:54:31.577Z,3.00
2019-05-05T20:56:59.222Z,3.00
2019-05-05T20:59:30.689Z,2.90
2019-05-05T21:01:56.214Z,3.00
2019-05-05T21:04:24.607Z,2.90
2019-05-05T21:06:52.358Z,2.80
2019-05-05T21:09:19.987Z,2.70
2019-05-05T21:11:47.627Z,2.50
2019-05-05T21:14:15.291Z,2.50
2019-05-05T21:16:44.014Z,2.40
2019-05-05T21:19:13.957Z,2.40
2019-05-05T21:21:44.576Z,2.40
2019-05-05T21:24:12.284Z,2.40
2019-05-05T21:26:50.367Z,2.40
2019-05-05T21:29:18.367Z,2.40
2019-05-05T21:31:46.007Z,2.40
2019-05-05T21:34:14.100Z,2.30
2019-05-05T21:36:41.848Z,2.20
2019-05-05T21:39:09.547Z,2.20
2019-05-05T21:41:37.191Z,2.20
2019-05-05T21:44:05.080Z,2.00
2019-05-05T21:46:34.564Z,2.00
2019-05-05T21:49:03.994Z,2.00
2019-05-05T21:51:35.009Z,2.00
2019-05-05T21:54:20.713Z,1.90
2019-05-05T21:56:52.700Z,1.90
2019-05-05T21:59:20.327Z,1.90
2019-05-05T22:01:49.589Z,1.80
2019-05-05T22:04:17.330Z,1.70
2019-05-05T22:06:44.972Z,1.70
2019-05-05T22:09:14.619Z,1.70
2019-05-05T22:11:43.556Z,1.60
2019-05-05T22:14:11.284Z,1.70
2019-05-05T22:16:38.912Z,1.70
2019-05-05T22:19:07.224Z,1.60
2019-05-05T22:21:39.515Z,1.40
2019-05-05T22:24:15.934Z,1.40
2019-05-05T22:26:44.513Z,1.40
2019-05-05T22:29:14.128Z,1.40
2019-05-05T22:31:41.977Z,1.30
2019-05-05T22:34:09.615Z,1.10
2019-05-05T22:36:37.248Z,1.20
2019-05-05T22:39:06.642Z,1.20
2019-05-05T22:41:34.263Z,1.20
2019-05-05T22:44:04.351Z,1.20
2019-05-05T22:46:31.329Z,1.20
2019-05-05T22:48:58.971Z,1.10
2019-05-05T22:51:26.599Z,1.10
2019-05-05T22:53:54.769Z,1.00
2019-05-05T22:56:24.104Z,1.00
2019-05-05T22:58:54.589Z,1.00
2019-05-05T23:03:51.133Z,0.90
2019-05-05T23:06:26.087Z,0.90
2019-05-05T23:08:54.630Z,0.90
2019-05-05T23:11:23.937Z,0.90
2019-05-05T23:13:53.765Z,0.90
2019-05-05T23:16:34.050Z,0.70
2019-05-05T23:19:02.191Z,0.70
2019-05-05T23:21:34.454Z,0.60
2019-05-05T23:24:19.835Z,0.60
2019-05-05T23:26:49.107Z,0.60
2019-05-05T23:29:16.747Z,0.60
2019-05-05T23:31:44.596Z,0.50
2019-05-05T23:34:14.548Z,0.50
2019-05-05T23:36:41.643Z,0.60
2019-05-05T23:39:09.287Z,0.50
2019-05-05T23:41:36.914Z,0.50
2019-05-05T23:44:04.710Z,0.40
2019-05-05T23:46:34.746Z,0.30
2019-05-05T23:49:04.114Z,0.10
2019-05-05T23:51:31.334Z,0.00
2019-05-05T23:56:26.343Z,-0.10
2019-05-05T23:58:54.916Z,-0.10
